sensor_id;sensor_type;location;lat;lon;timestamp;P1;durP1;ratioP1;P2;durP2;ratioP2
63801;SDS011;49949;43.060;25.624;2022-07-21T00:00:55;8.13;;;4.30;;
63801;SDS011;49949;43.060;25.624;2022-07-21T00:03:21;11.98;;;3.65;;
63801;SDS011;49949;43.060;25.624;2022-07-21T00:05:47;9.10;;;4.45;;
63801;SDS011;49949;43.060;25.624;2022-07-21T00:08:13;8.75;;;3.97;;
63801;SDS011;49949;43.060;25.624;2022-07-21T00:10:39;5.45;;;3.90;;
63801;SDS011;49949;43.060;25.624;2022-07-21T00:13:05;11.15;;;4.25;;
63801;SDS011;49949;43.060;25.624;2022-07-21T00:15:31;9.30;;;4.20;;
63801;SDS011;49949;43.060;25.624;2022-07-21T00:17:58;14.27;;;4.47;;
63801;SDS011;49949;43.060;25.624;2022-07-21T00:20:25;7.72;;;3.88;;
63801;SDS011;49949;43.060;25.624;2022-07-21T00:22:52;10.80;;;4.57;;
63801;SDS011;49949;43.060;25.624;2022-07-21T00:25:18;9.82;;;4.13;;
63801;SDS011;49949;43.060;25.624;2022-07-21T00:27:45;6.72;;;4.40;;
63801;SDS011;49949;43.060;25.624;2022-07-21T00:30:11;7.53;;;4.40;;
63801;SDS011;49949;43.060;25.624;2022-07-21T00:32:38;11.82;;;4.50;;
63801;SDS011;49949;43.060;25.624;2022-07-21T00:35:04;8.57;;;3.88;;
63801;SDS011;49949;43.060;25.624;2022-07-21T00:37:32;11.45;;;4.68;;
63801;SDS011;49949;43.060;25.624;2022-07-21T00:39:58;8.25;;;4.68;;
63801;SDS011;49949;43.060;25.624;2022-07-21T00:42:26;7.63;;;4.45;;
63801;SDS011;49949;43.060;25.624;2022-07-21T00:44:53;9.77;;;3.95;;
63801;SDS011;49949;43.060;25.624;2022-07-21T00:47:19;9.60;;;4.78;;
63801;SDS011;49949;43.060;25.624;2022-07-21T00:49:49;8.65;;;4.63;;
63801;SDS011;49949;43.060;25.624;2022-07-21T00:52:15;9.32;;;4.47;;
63801;SDS011;49949;43.060;25.624;2022-07-21T00:54:42;14.45;;;4.90;;
63801;SDS011;49949;43.060;25.624;2022-07-21T00:57:08;13.38;;;4.32;;
63801;SDS011;49949;43.060;25.624;2022-07-21T00:59:35;13.63;;;4.85;;
63801;SDS011;49949;43.060;25.624;2022-07-21T01:02:01;16.00;;;5.70;;
63801;SDS011;49949;43.060;25.624;2022-07-21T01:04:27;12.10;;;4.90;;
63801;SDS011;49949;43.060;25.624;2022-07-21T01:06:53;6.13;;;5.28;;
63801;SDS011;49949;43.060;25.624;2022-07-21T01:09:20;8.40;;;5.15;;
63801;SDS011;49949;43.060;25.624;2022-07-21T01:11:46;13.40;;;5.57;;
63801;SDS011;49949;43.060;25.624;2022-07-21T01:14:12;7.65;;;4.70;;
63801;SDS011;49949;43.060;25.624;2022-07-21T01:16:39;6.97;;;5.07;;
63801;SDS011;49949;43.060;25.624;2022-07-21T01:19:06;14.05;;;4.93;;
63801;SDS011;49949;43.060;25.624;2022-07-21T01:24:03;13.05;;;5.47;;
63801;SDS011;49949;43.060;25.624;2022-07-21T01:26:29;12.02;;;5.85;;
63801;SDS011;49949;43.060;25.624;2022-07-21T01:28:56;8.98;;;5.65;;
63801;SDS011;49949;43.060;25.624;2022-07-21T01:31:23;11.02;;;5.68;;
63801;SDS011;49949;43.060;25.624;2022-07-21T01:33:50;18.70;;;6.13;;
63801;SDS011;49949;43.060;25.624;2022-07-21T01:36:16;9.18;;;5.70;;
63801;SDS011;49949;43.060;25.624;2022-07-21T01:38:41;14.40;;;6.05;;
63801;SDS011;49949;43.060;25.624;2022-07-21T01:41:25;10.68;;;6.10;;
63801;SDS011;49949;43.060;25.624;2022-07-21T01:43:55;16.83;;;5.35;;
63801;SDS011;49949;43.060;25.624;2022-07-21T01:46:21;11.02;;;5.97;;
63801;SDS011;49949;43.060;25.624;2022-07-21T01:48:47;16.27;;;11.38;;
63801;SDS011;49949;43.060;25.624;2022-07-21T01:51:13;12.55;;;6.57;;
63801;SDS011;49949;43.060;25.624;2022-07-21T01:53:39;7.13;;;5.22;;
63801;SDS011;49949;43.060;25.624;2022-07-21T01:56:05;9.98;;;5.55;;
63801;SDS011;49949;43.060;25.624;2022-07-21T01:58:32;8.30;;;5.10;;
63801;SDS011;49949;43.060;25.624;2022-07-21T02:00:58;6.32;;;5.40;;
63801;SDS011;49949;43.060;25.624;2022-07-21T02:03:24;9.75;;;5.20;;
63801;SDS011;49949;43.060;25.624;2022-07-21T02:05:49;8.35;;;5.43;;
63801;SDS011;49949;43.060;25.624;2022-07-21T02:08:15;10.68;;;4.93;;
63801;SDS011;49949;43.060;25.624;2022-07-21T02:10:41;8.80;;;5.10;;
63801;SDS011;49949;43.060;25.624;2022-07-21T02:13:07;13.15;;;5.43;;
63801;SDS011;49949;43.060;25.624;2022-07-21T02:15:33;8.13;;;4.68;;
63801;SDS011;49949;43.060;25.624;2022-07-21T02:17:58;9.85;;;4.70;;
63801;SDS011;49949;43.060;25.624;2022-07-21T02:20:25;7.05;;;4.60;;
63801;SDS011;49949;43.060;25.624;2022-07-21T02:22:51;6.55;;;4.60;;
63801;SDS011;49949;43.060;25.624;2022-07-21T02:25:18;11.30;;;4.70;;
63801;SDS011;49949;43.060;25.624;2022-07-21T02:27:44;10.80;;;4.60;;
63801;SDS011;49949;43.060;25.624;2022-07-21T02:30:11;9.57;;;4.90;;
63801;SDS011;49949;43.060;25.624;2022-07-21T02:32:37;13.35;;;5.53;;
63801;SDS011;49949;43.060;25.624;2022-07-21T02:35:03;10.32;;;5.30;;
63801;SDS011;49949;43.060;25.624;2022-07-21T02:37:30;15.43;;;4.90;;
63801;SDS011;49949;43.060;25.624;2022-07-21T02:39:56;9.88;;;4.38;;
63801;SDS011;49949;43.060;25.624;2022-07-21T02:42:22;9.30;;;4.50;;
63801;SDS011;49949;43.060;25.624;2022-07-21T02:44:47;15.68;;;5.75;;
63801;SDS011;49949;43.060;25.624;2022-07-21T02:47:13;11.82;;;5.60;;
63801;SDS011;49949;43.060;25.624;2022-07-21T02:49:39;8.25;;;4.90;;
63801;SDS011;49949;43.060;25.624;2022-07-21T02:52:05;6.50;;;4.43;;
63801;SDS011;49949;43.060;25.624;2022-07-21T02:54:31;10.77;;;4.57;;
63801;SDS011;49949;43.060;25.624;2022-07-21T02:56:56;12.18;;;4.60;;
63801;SDS011;49949;43.060;25.624;2022-07-21T02:59:22;10.68;;;5.05;;
63801;SDS011;49949;43.060;25.624;2022-07-21T03:01:48;12.73;;;5.22;;
63801;SDS011;49949;43.060;25.624;2022-07-21T03:04:14;11.52;;;4.68;;
63801;SDS011;49949;43.060;25.624;2022-07-21T03:06:40;10.73;;;4.13;;
63801;SDS011;49949;43.060;25.624;2022-07-21T03:09:07;14.70;;;4.13;;
63801;SDS011;49949;43.060;25.624;2022-07-21T03:11:34;16.00;;;4.45;;
63801;SDS011;49949;43.060;25.624;2022-07-21T03:13:59;34.08;;;5.57;;
63801;SDS011;49949;43.060;25.624;2022-07-21T03:16:26;12.07;;;5.03;;
63801;SDS011;49949;43.060;25.624;2022-07-21T03:18:51;8.73;;;4.63;;
63801;SDS011;49949;43.060;25.624;2022-07-21T03:21:17;8.98;;;4.78;;
63801;SDS011;49949;43.060;25.624;2022-07-21T03:23:43;10.75;;;5.32;;
63801;SDS011;49949;43.060;25.624;2022-07-21T03:26:13;9.35;;;4.88;;
63801;SDS011;49949;43.060;25.624;2022-07-21T03:28:41;11.98;;;5.32;;
63801;SDS011;49949;43.060;25.624;2022-07-21T03:31:08;12.50;;;4.88;;
63801;SDS011;49949;43.060;25.624;2022-07-21T03:33:34;11.45;;;5.70;;
63801;SDS011;49949;43.060;25.624;2022-07-21T03:36:01;12.43;;;5.47;;
63801;SDS011;49949;43.060;25.624;2022-07-21T03:38:27;34.90;;;6.63;;
63801;SDS011;49949;43.060;25.624;2022-07-21T03:40:53;6.82;;;5.05;;
63801;SDS011;49949;43.060;25.624;2022-07-21T03:43:19;26.77;;;5.10;;
63801;SDS011;49949;43.060;25.624;2022-07-21T03:45:44;30.88;;;5.47;;
63801;SDS011;49949;43.060;25.624;2022-07-21T03:48:11;16.95;;;5.28;;
63801;SDS011;49949;43.060;25.624;2022-07-21T03:50:38;12.13;;;4.40;;
63801;SDS011;49949;43.060;25.624;2022-07-21T03:53:05;11.18;;;3.92;;
63801;SDS011;49949;43.060;25.624;2022-07-21T03:55:31;11.70;;;4.00;;
63801;SDS011;49949;43.060;25.624;2022-07-21T03:57:59;18.38;;;4.60;;
63801;SDS011;49949;43.060;25.624;2022-07-21T04:00:29;10.10;;;4.55;;
63801;SDS011;49949;43.060;25.624;2022-07-21T04:02:57;30.38;;;5.25;;
63801;SDS011;49949;43.060;25.624;2022-07-21T04:05:23;27.70;;;4.88;;
63801;SDS011;49949;43.060;25.624;2022-07-21T04:07:50;43.28;;;5.50;;
63801;SDS011;49949;43.060;25.624;2022-07-21T04:10:19;18.95;;;5.35;;
63801;SDS011;49949;43.060;25.624;2022-07-21T04:12:47;32.20;;;4.75;;
63801;SDS011;49949;43.060;25.624;2022-07-21T04:15:14;25.38;;;6.35;;
63801;SDS011;49949;43.060;25.624;2022-07-21T04:17:40;20.55;;;5.60;;
63801;SDS011;49949;43.060;25.624;2022-07-21T04:20:06;24.88;;;5.50;;
63801;SDS011;49949;43.060;25.624;2022-07-21T04:22:33;41.92;;;7.43;;
63801;SDS011;49949;43.060;25.624;2022-07-21T04:24:59;45.03;;;7.57;;
63801;SDS011;49949;43.060;25.624;2022-07-21T04:27:26;56.63;;;8.50;;
63801;SDS011;49949;43.060;25.624;2022-07-21T04:29:52;62.47;;;6.40;;
63801;SDS011;49949;43.060;25.624;2022-07-21T04:32:19;36.38;;;6.75;;
63801;SDS011;49949;43.060;25.624;2022-07-21T04:34:44;33.08;;;7.47;;
63801;SDS011;49949;43.060;25.624;2022-07-21T04:37:10;37.25;;;8.27;;
63801;SDS011;49949;43.060;25.624;2022-07-21T04:39:36;57.53;;;9.57;;
63801;SDS011;49949;43.060;25.624;2022-07-21T04:42:02;84.55;;;13.90;;
63801;SDS011;49949;43.060;25.624;2022-07-21T04:44:29;50.40;;;10.77;;
63801;SDS011;49949;43.060;25.624;2022-07-21T04:46:54;42.80;;;10.90;;
63801;SDS011;49949;43.060;25.624;2022-07-21T04:49:20;34.47;;;9.40;;
63801;SDS011;49949;43.060;25.624;2022-07-21T04:51:46;80.60;;;14.02;;
63801;SDS011;49949;43.060;25.624;2022-07-21T04:54:12;58.97;;;12.13;;
63801;SDS011;49949;43.060;25.624;2022-07-21T04:56:41;54.35;;;11.30;;
63801;SDS011;49949;43.060;25.624;2022-07-21T04:59:07;44.22;;;11.85;;
63801;SDS011;49949;43.060;25.624;2022-07-21T05:01:33;106.57;;;14.88;;
63801;SDS011;49949;43.060;25.624;2022-07-21T05:04:00;66.95;;;15.25;;
63801;SDS011;49949;43.060;25.624;2022-07-21T05:06:25;58.22;;;14.90;;
63801;SDS011;49949;43.060;25.624;2022-07-21T05:08:51;64.13;;;15.55;;
63801;SDS011;49949;43.060;25.624;2022-07-21T05:11:17;85.20;;;16.50;;
63801;SDS011;49949;43.060;25.624;2022-07-21T05:13:43;53.28;;;17.60;;
63801;SDS011;49949;43.060;25.624;2022-07-21T05:16:08;49.08;;;18.08;;
63801;SDS011;49949;43.060;25.624;2022-07-21T05:18:34;178.23;;;26.58;;
63801;SDS011;49949;43.060;25.624;2022-07-21T05:21:00;59.45;;;20.92;;
63801;SDS011;49949;43.060;25.624;2022-07-21T05:23:25;62.47;;;20.15;;
63801;SDS011;49949;43.060;25.624;2022-07-21T05:25:51;51.65;;;21.05;;
63801;SDS011;49949;43.060;25.624;2022-07-21T05:28:17;45.30;;;20.92;;
63801;SDS011;49949;43.060;25.624;2022-07-21T05:30:43;58.90;;;23.40;;
63801;SDS011;49949;43.060;25.624;2022-07-21T05:33:08;63.13;;;23.05;;
63801;SDS011;49949;43.060;25.624;2022-07-21T05:35:34;61.10;;;21.55;;
63801;SDS011;49949;43.060;25.624;2022-07-21T05:38:00;52.65;;;20.65;;
63801;SDS011;49949;43.060;25.624;2022-07-21T05:40:26;68.40;;;23.15;;
63801;SDS011;49949;43.060;25.624;2022-07-21T05:42:52;67.43;;;22.88;;
63801;SDS011;49949;43.060;25.624;2022-07-21T05:45:18;66.35;;;24.77;;
63801;SDS011;49949;43.060;25.624;2022-07-21T05:47:43;46.33;;;22.80;;
63801;SDS011;49949;43.060;25.624;2022-07-21T05:50:09;55.80;;;20.60;;
63801;SDS011;49949;43.060;25.624;2022-07-21T05:52:36;109.60;;;24.35;;
63801;SDS011;49949;43.060;25.624;2022-07-21T05:55:02;80.93;;;25.73;;
63801;SDS011;49949;43.060;25.624;2022-07-21T05:57:28;84.05;;;25.58;;
63801;SDS011;49949;43.060;25.624;2022-07-21T05:59:54;98.25;;;28.83;;
63801;SDS011;49949;43.060;25.624;2022-07-21T06:02:20;98.63;;;26.50;;
63801;SDS011;49949;43.060;25.624;2022-07-21T06:04:45;133.30;;;27.40;;
63801;SDS011;49949;43.060;25.624;2022-07-21T06:07:11;93.88;;;23.35;;
63801;SDS011;49949;43.060;25.624;2022-07-21T06:09:37;56.58;;;19.15;;
63801;SDS011;49949;43.060;25.624;2022-07-21T06:12:03;49.00;;;13.73;;
63801;SDS011;49949;43.060;25.624;2022-07-21T06:14:29;351.02;;;28.58;;
63801;SDS011;49949;43.060;25.624;2022-07-21T06:16:54;60.63;;;16.13;;
63801;SDS011;49949;43.060;25.624;2022-07-21T06:19:20;54.10;;;14.57;;
63801;SDS011;49949;43.060;25.624;2022-07-21T06:21:46;66.13;;;13.23;;
63801;SDS011;49949;43.060;25.624;2022-07-21T06:24:11;62.75;;;16.25;;
63801;SDS011;49949;43.060;25.624;2022-07-21T06:26:38;60.67;;;17.15;;
63801;SDS011;49949;43.060;25.624;2022-07-21T06:29:05;59.15;;;18.40;;
63801;SDS011;49949;43.060;25.624;2022-07-21T06:31:31;65.97;;;19.55;;
63801;SDS011;49949;43.060;25.624;2022-07-21T06:33:57;62.13;;;21.17;;
63801;SDS011;49949;43.060;25.624;2022-07-21T06:36:23;82.30;;;21.88;;
63801;SDS011;49949;43.060;25.624;2022-07-21T06:38:49;53.83;;;17.35;;
63801;SDS011;49949;43.060;25.624;2022-07-21T06:41:14;27.60;;;9.32;;
63801;SDS011;49949;43.060;25.624;2022-07-21T06:43:40;44.35;;;11.55;;
63801;SDS011;49949;43.060;25.624;2022-07-21T06:46:06;130.25;;;14.55;;
63801;SDS011;49949;43.060;25.624;2022-07-21T06:48:32;22.13;;;7.65;;
63801;SDS011;49949;43.060;25.624;2022-07-21T06:50:57;18.38;;;6.55;;
63801;SDS011;49949;43.060;25.624;2022-07-21T06:53:23;13.48;;;5.93;;
63801;SDS011;49949;43.060;25.624;2022-07-21T06:55:50;14.95;;;7.03;;
63801;SDS011;49949;43.060;25.624;2022-07-21T06:58:20;22.92;;;6.28;;
63801;SDS011;49949;43.060;25.624;2022-07-21T07:00:48;25.42;;;6.93;;
63801;SDS011;49949;43.060;25.624;2022-07-21T07:03:15;22.88;;;6.53;;
63801;SDS011;49949;43.060;25.624;2022-07-21T07:05:42;14.07;;;5.05;;
63801;SDS011;49949;43.060;25.624;2022-07-21T07:08:09;254.20;;;14.35;;
63801;SDS011;49949;43.060;25.624;2022-07-21T07:10:35;23.35;;;5.40;;
63801;SDS011;49949;43.060;25.624;2022-07-21T07:13:01;18.58;;;5.40;;
63801;SDS011;49949;43.060;25.624;2022-07-21T07:15:27;11.15;;;4.90;;
63801;SDS011;49949;43.060;25.624;2022-07-21T07:17:53;13.55;;;4.90;;
63801;SDS011;49949;43.060;25.624;2022-07-21T07:20:20;17.15;;;4.38;;
63801;SDS011;49949;43.060;25.624;2022-07-21T07:22:47;164.32;;;13.52;;
63801;SDS011;49949;43.060;25.624;2022-07-21T07:25:13;23.80;;;4.97;;
63801;SDS011;49949;43.060;25.624;2022-07-21T07:27:45;28.77;;;4.10;;
63801;SDS011;49949;43.060;25.624;2022-07-21T07:30:12;9.20;;;3.63;;
63801;SDS011;49949;43.060;25.624;2022-07-21T07:32:38;22.02;;;4.07;;
63801;SDS011;49949;43.060;25.624;2022-07-21T07:35:05;9.55;;;2.97;;
63801;SDS011;49949;43.060;25.624;2022-07-21T07:37:33;18.65;;;3.58;;
63801;SDS011;49949;43.060;25.624;2022-07-21T07:40:00;9.63;;;3.00;;
63801;SDS011;49949;43.060;25.624;2022-07-21T07:42:26;20.38;;;3.50;;
63801;SDS011;49949;43.060;25.624;2022-07-21T07:44:52;11.20;;;2.30;;
63801;SDS011;49949;43.060;25.624;2022-07-21T07:47:17;5.38;;;2.20;;
63801;SDS011;49949;43.060;25.624;2022-07-21T07:49:43;7.47;;;2.03;;
63801;SDS011;49949;43.060;25.624;2022-07-21T07:52:09;13.85;;;2.83;;
63801;SDS011;49949;43.060;25.624;2022-07-21T07:54:35;93.60;;;6.32;;
63801;SDS011;49949;43.060;25.624;2022-07-21T07:57:01;6.75;;;2.33;;
63801;SDS011;49949;43.060;25.624;2022-07-21T07:59:27;19.42;;;2.72;;
63801;SDS011;49949;43.060;25.624;2022-07-21T08:01:52;11.82;;;2.80;;
63801;SDS011;49949;43.060;25.624;2022-07-21T08:04:18;4.07;;;2.28;;
63801;SDS011;49949;43.060;25.624;2022-07-21T08:06:44;7.25;;;2.22;;
63801;SDS011;49949;43.060;25.624;2022-07-21T08:09:09;6.10;;;2.58;;
63801;SDS011;49949;43.060;25.624;2022-07-21T08:11:35;7.03;;;2.78;;
63801;SDS011;49949;43.060;25.624;2022-07-21T08:14:01;7.13;;;2.58;;
63801;SDS011;49949;43.060;25.624;2022-07-21T08:16:27;12.43;;;2.90;;
63801;SDS011;49949;43.060;25.624;2022-07-21T08:18:52;7.78;;;2.42;;
63801;SDS011;49949;43.060;25.624;2022-07-21T08:21:18;15.40;;;3.25;;
63801;SDS011;49949;43.060;25.624;2022-07-21T08:23:44;23.77;;;2.80;;
63801;SDS011;49949;43.060;25.624;2022-07-21T08:26:09;11.77;;;2.75;;
63801;SDS011;49949;43.060;25.624;2022-07-21T08:28:35;8.27;;;1.98;;
63801;SDS011;49949;43.060;25.624;2022-07-21T08:31:01;3.42;;;2.65;;
63801;SDS011;49949;43.060;25.624;2022-07-21T08:33:27;5.15;;;2.22;;
63801;SDS011;49949;43.060;25.624;2022-07-21T08:35:52;19.73;;;2.83;;
63801;SDS011;49949;43.060;25.624;2022-07-21T08:38:19;3.72;;;1.80;;
63801;SDS011;49949;43.060;25.624;2022-07-21T08:40:45;7.22;;;2.50;;
63801;SDS011;49949;43.060;25.624;2022-07-21T08:43:11;3.45;;;2.08;;
63801;SDS011;49949;43.060;25.624;2022-07-21T08:45:39;7.63;;;2.38;;
63801;SDS011;49949;43.060;25.624;2022-07-21T08:48:06;57.55;;;5.15;;
63801;SDS011;49949;43.060;25.624;2022-07-21T08:50:33;2.30;;;2.10;;
63801;SDS011;49949;43.060;25.624;2022-07-21T08:53:00;15.43;;;2.40;;
63801;SDS011;49949;43.060;25.624;2022-07-21T08:55:30;3.15;;;2.28;;
63801;SDS011;49949;43.060;25.624;2022-07-21T08:57:57;8.88;;;2.20;;
63801;SDS011;49949;43.060;25.624;2022-07-21T09:00:24;14.38;;;2.80;;
63801;SDS011;49949;43.060;25.624;2022-07-21T09:03:01;6.72;;;2.42;;
63801;SDS011;49949;43.060;25.624;2022-07-21T09:11:10;7.97;;;2.10;;
63801;SDS011;49949;43.060;25.624;2022-07-21T09:13:48;7.72;;;2.08;;
63801;SDS011;49949;43.060;25.624;2022-07-21T09:16:31;14.35;;;2.45;;
63801;SDS011;49949;43.060;25.624;2022-07-21T09:18:59;9.13;;;2.10;;
63801;SDS011;49949;43.060;25.624;2022-07-21T09:21:26;5.85;;;2.10;;
63801;SDS011;49949;43.060;25.624;2022-07-21T09:23:58;8.55;;;2.50;;
63801;SDS011;49949;43.060;25.624;2022-07-21T09:27:05;16.50;;;3.00;;
63801;SDS011;49949;43.060;25.624;2022-07-21T09:29:42;28.08;;;3.50;;
63801;SDS011;49949;43.060;25.624;2022-07-21T09:32:17;3.22;;;2.45;;
63801;SDS011;49949;43.060;25.624;2022-07-21T09:34:48;7.15;;;2.58;;
63801;SDS011;49949;43.060;25.624;2022-07-21T09:37:17;5.00;;;2.70;;
63801;SDS011;49949;43.060;25.624;2022-07-21T09:42:14;8.18;;;2.20;;
63801;SDS011;49949;43.060;25.624;2022-07-21T09:44:42;4.80;;;2.28;;
63801;SDS011;49949;43.060;25.624;2022-07-21T09:47:10;8.57;;;2.60;;
63801;SDS011;49949;43.060;25.624;2022-07-21T09:49:38;9.05;;;2.13;;
63801;SDS011;49949;43.060;25.624;2022-07-21T09:52:19;4.93;;;2.10;;
63801;SDS011;49949;43.060;25.624;2022-07-21T09:54:50;5.80;;;2.25;;
63801;SDS011;49949;43.060;25.624;2022-07-21T09:57:18;5.18;;;2.30;;
63801;SDS011;49949;43.060;25.624;2022-07-21T09:59:44;4.97;;;1.90;;
63801;SDS011;49949;43.060;25.624;2022-07-21T10:02:18;5.30;;;2.40;;
63801;SDS011;49949;43.060;25.624;2022-07-21T10:04:56;12.05;;;2.45;;
63801;SDS011;49949;43.060;25.624;2022-07-21T10:07:22;13.10;;;2.80;;
63801;SDS011;49949;43.060;25.624;2022-07-21T10:09:49;8.77;;;2.70;;
63801;SDS011;49949;43.060;25.624;2022-07-21T10:12:15;5.32;;;2.60;;
63801;SDS011;49949;43.060;25.624;2022-07-21T10:14:42;8.50;;;2.63;;
63801;SDS011;49949;43.060;25.624;2022-07-21T10:17:08;7.70;;;2.10;;
63801;SDS011;49949;43.060;25.624;2022-07-21T10:19:37;48.08;;;6.10;;
63801;SDS011;49949;43.060;25.624;2022-07-21T10:25:02;3.92;;;2.10;;
63801;SDS011;49949;43.060;25.624;2022-07-21T10:27:28;4.68;;;2.65;;
63801;SDS011;49949;43.060;25.624;2022-07-21T10:29:55;16.52;;;3.05;;
63801;SDS011;49949;43.060;25.624;2022-07-21T10:35:02;20.55;;;3.00;;
63801;SDS011;49949;43.060;25.624;2022-07-21T10:37:47;6.85;;;2.30;;
63801;SDS011;49949;43.060;25.624;2022-07-21T10:45:33;11.00;;;2.38;;
63801;SDS011;49949;43.060;25.624;2022-07-21T10:48:02;3.80;;;2.03;;
63801;SDS011;49949;43.060;25.624;2022-07-21T10:50:37;11.27;;;2.15;;
63801;SDS011;49949;43.060;25.624;2022-07-21T10:53:07;9.88;;;2.72;;
63801;SDS011;49949;43.060;25.624;2022-07-21T10:55:47;4.03;;;2.05;;
63801;SDS011;49949;43.060;25.624;2022-07-21T11:00:50;6.95;;;2.05;;
63801;SDS011;49949;43.060;25.624;2022-07-21T11:03:23;4.85;;;2.30;;
63801;SDS011;49949;43.060;25.624;2022-07-21T11:08:32;3.67;;;2.03;;
63801;SDS011;49949;43.060;25.624;2022-07-21T11:11:09;5.72;;;2.30;;
63801;SDS011;49949;43.060;25.624;2022-07-21T11:22:09;26.27;;;2.90;;
63801;SDS011;49949;43.060;25.624;2022-07-21T11:24:34;5.15;;;2.30;;
63801;SDS011;49949;43.060;25.624;2022-07-21T11:27:07;3.42;;;1.92;;
63801;SDS011;49949;43.060;25.624;2022-07-21T11:29:34;3.15;;;1.90;;
63801;SDS011;49949;43.060;25.624;2022-07-21T11:32:01;3.15;;;2.08;;
63801;SDS011;49949;43.060;25.624;2022-07-21T11:34:41;5.53;;;2.15;;
63801;SDS011;49949;43.060;25.624;2022-07-21T11:37:11;5.90;;;1.98;;
63801;SDS011;49949;43.060;25.624;2022-07-21T11:39:38;16.55;;;2.30;;
63801;SDS011;49949;43.060;25.624;2022-07-21T11:42:08;4.93;;;2.20;;
63801;SDS011;49949;43.060;25.624;2022-07-21T11:44:38;8.43;;;1.85;;
63801;SDS011;49949;43.060;25.624;2022-07-21T11:47:06;7.35;;;2.22;;
63801;SDS011;49949;43.060;25.624;2022-07-21T11:49:34;9.25;;;2.22;;
63801;SDS011;49949;43.060;25.624;2022-07-21T11:52:04;7.32;;;1.90;;
63801;SDS011;49949;43.060;25.624;2022-07-21T11:54:33;14.27;;;2.60;;
63801;SDS011;49949;43.060;25.624;2022-07-21T11:57:10;7.95;;;1.85;;
63801;SDS011;49949;43.060;25.624;2022-07-21T11:59:36;3.92;;;2.08;;
63801;SDS011;49949;43.060;25.624;2022-07-21T12:02:08;5.45;;;1.90;;
63801;SDS011;49949;43.060;25.624;2022-07-21T12:04:35;10.02;;;2.60;;
63801;SDS011;49949;43.060;25.624;2022-07-21T12:07:13;4.88;;;2.22;;
63801;SDS011;49949;43.060;25.624;2022-07-21T12:09:48;11.52;;;2.70;;
63801;SDS011;49949;43.060;25.624;2022-07-21T12:12:19;17.02;;;3.08;;
63801;SDS011;49949;43.060;25.624;2022-07-21T12:17:53;13.13;;;2.25;;
63801;SDS011;49949;43.060;25.624;2022-07-21T12:23:01;10.15;;;2.33;;
63801;SDS011;49949;43.060;25.624;2022-07-21T12:25:38;8.50;;;2.13;;
63801;SDS011;49949;43.060;25.624;2022-07-21T12:28:05;5.80;;;2.17;;
63801;SDS011;49949;43.060;25.624;2022-07-21T12:30:38;7.78;;;2.50;;
63801;SDS011;49949;43.060;25.624;2022-07-21T12:33:10;5.05;;;2.00;;
63801;SDS011;49949;43.060;25.624;2022-07-21T12:35:39;8.68;;;2.13;;
63801;SDS011;49949;43.060;25.624;2022-07-21T12:38:15;11.02;;;2.42;;
63801;SDS011;49949;43.060;25.624;2022-07-21T12:40:48;4.63;;;2.03;;
63801;SDS011;49949;43.060;25.624;2022-07-21T12:43:20;9.20;;;2.20;;
63801;SDS011;49949;43.060;25.624;2022-07-21T12:45:51;3.25;;;1.77;;
63801;SDS011;49949;43.060;25.624;2022-07-21T12:48:26;7.90;;;1.85;;
63801;SDS011;49949;43.060;25.624;2022-07-21T12:51:01;5.97;;;2.05;;
63801;SDS011;49949;43.060;25.624;2022-07-21T12:53:51;4.72;;;2.25;;
63801;SDS011;49949;43.060;25.624;2022-07-21T12:56:19;8.73;;;1.80;;
63801;SDS011;49949;43.060;25.624;2022-07-21T12:58:46;4.32;;;2.10;;
63801;SDS011;49949;43.060;25.624;2022-07-21T13:01:13;6.82;;;2.20;;
63801;SDS011;49949;43.060;25.624;2022-07-21T13:03:40;7.57;;;2.60;;
63801;SDS011;49949;43.060;25.624;2022-07-21T13:06:06;2.80;;;2.00;;
63801;SDS011;49949;43.060;25.624;2022-07-21T13:08:33;4.40;;;1.88;;
63801;SDS011;49949;43.060;25.624;2022-07-21T13:10:59;25.23;;;3.17;;
63801;SDS011;49949;43.060;25.624;2022-07-21T13:13:25;7.03;;;2.42;;
63801;SDS011;49949;43.060;25.624;2022-07-21T13:15:52;9.63;;;2.15;;
63801;SDS011;49949;43.060;25.624;2022-07-21T13:18:19;4.20;;;2.10;;
63801;SDS011;49949;43.060;25.624;2022-07-21T13:20:44;3.25;;;2.13;;
63801;SDS011;49949;43.060;25.624;2022-07-21T13:23:10;9.35;;;2.50;;
63801;SDS011;49949;43.060;25.624;2022-07-21T13:25:36;10.38;;;2.60;;
63801;SDS011;49949;43.060;25.624;2022-07-21T13:28:02;34.58;;;4.47;;
63801;SDS011;49949;43.060;25.624;2022-07-21T13:30:29;27.55;;;3.22;;
63801;SDS011;49949;43.060;25.624;2022-07-21T13:32:54;10.60;;;2.75;;
63801;SDS011;49949;43.060;25.624;2022-07-21T13:35:20;4.68;;;2.03;;
63801;SDS011;49949;43.060;25.624;2022-07-21T13:37:46;4.22;;;2.13;;
63801;SDS011;49949;43.060;25.624;2022-07-21T13:40:12;8.15;;;2.55;;
63801;SDS011;49949;43.060;25.624;2022-07-21T13:42:37;5.00;;;1.80;;
63801;SDS011;49949;43.060;25.624;2022-07-21T13:45:03;6.68;;;2.40;;
63801;SDS011;49949;43.060;25.624;2022-07-21T13:47:30;9.23;;;2.08;;
63801;SDS011;49949;43.060;25.624;2022-07-21T13:49:56;8.23;;;2.55;;
63801;SDS011;49949;43.060;25.624;2022-07-21T13:52:22;14.68;;;2.13;;
63801;SDS011;49949;43.060;25.624;2022-07-21T13:54:47;3.42;;;2.13;;
63801;SDS011;49949;43.060;25.624;2022-07-21T13:57:13;58.08;;;3.28;;
63801;SDS011;49949;43.060;25.624;2022-07-21T13:59:39;2.65;;;1.95;;
63801;SDS011;49949;43.060;25.624;2022-07-21T14:02:06;4.97;;;2.20;;
63801;SDS011;49949;43.060;25.624;2022-07-21T14:04:32;9.55;;;2.35;;
63801;SDS011;49949;43.060;25.624;2022-07-21T14:06:58;5.97;;;2.60;;
63801;SDS011;49949;43.060;25.624;2022-07-21T14:09:24;38.65;;;4.03;;
63801;SDS011;49949;43.060;25.624;2022-07-21T14:11:49;37.22;;;3.60;;
63801;SDS011;49949;43.060;25.624;2022-07-21T14:14:15;8.93;;;2.20;;
63801;SDS011;49949;43.060;25.624;2022-07-21T14:16:48;2.78;;;1.90;;
63801;SDS011;49949;43.060;25.624;2022-07-21T14:19:14;10.27;;;2.28;;
63801;SDS011;49949;43.060;25.624;2022-07-21T14:21:41;4.35;;;2.35;;
63801;SDS011;49949;43.060;25.624;2022-07-21T14:24:07;5.82;;;1.88;;
63801;SDS011;49949;43.060;25.624;2022-07-21T14:26:51;4.22;;;2.40;;
63801;SDS011;49949;43.060;25.624;2022-07-21T14:29:17;43.20;;;4.30;;
63801;SDS011;49949;43.060;25.624;2022-07-21T14:31:43;5.70;;;1.90;;
63801;SDS011;49949;43.060;25.624;2022-07-21T14:34:08;3.88;;;1.90;;
63801;SDS011;49949;43.060;25.624;2022-07-21T14:36:34;3.45;;;2.00;;
63801;SDS011;49949;43.060;25.624;2022-07-21T14:39:00;5.50;;;2.40;;
63801;SDS011;49949;43.060;25.624;2022-07-21T14:41:26;4.47;;;2.17;;
63801;SDS011;49949;43.060;25.624;2022-07-21T14:43:51;6.53;;;2.10;;
63801;SDS011;49949;43.060;25.624;2022-07-21T14:46:17;10.90;;;2.67;;
63801;SDS011;49949;43.060;25.624;2022-07-21T14:48:43;8.95;;;2.20;;
63801;SDS011;49949;43.060;25.624;2022-07-21T14:51:08;7.28;;;2.22;;
63801;SDS011;49949;43.060;25.624;2022-07-21T14:53:34;7.65;;;2.33;;
63801;SDS011;49949;43.060;25.624;2022-07-21T14:56:00;6.10;;;2.28;;
63801;SDS011;49949;43.060;25.624;2022-07-21T14:58:26;2.70;;;2.15;;
63801;SDS011;49949;43.060;25.624;2022-07-21T15:00:51;7.60;;;2.10;;
63801;SDS011;49949;43.060;25.624;2022-07-21T15:03:17;11.80;;;2.50;;
63801;SDS011;49949;43.060;25.624;2022-07-21T15:05:43;34.60;;;3.33;;
63801;SDS011;49949;43.060;25.624;2022-07-21T15:08:09;9.52;;;2.90;;